EPWR/WRO METAR and TAF weather

Enter ICAO airport designator
Station Type Date Time Source
EPWR METAR 2022/11/30 18:30 UTC NOAA

EPWR 301830Z 11007KT 8000 FEW008 OVC010 00/M02 Q1028


Station Type Date Time Source
EPWR Decoded METAR 2022/11/30 18:30 UTC NOAA

Wroclaw Ii, Poland (EPWR) 51-06N 016-53E 121M
Nov 30, 2022 - 01:30 PM EST / 2022.11.30 1830 UTC
Wind: from the ESE (110 degrees) at 8 MPH (7 KT):0
Visibility: 4 mile(s):0
Sky conditions: overcast
Temperature: 32 F (0 C)
Windchill: 24 F (-4 C):1
Dew Point: 28 F (-2 C)
Relative Humidity: 86%
Pressure (altimeter): 30.36 in. Hg (1028 hPa)
ob: EPWR 301830Z 11007KT 8000 FEW008 OVC010 00/M02 Q1028
cycle: 18

Station Type Date Time Source
EPWR TAF 2022/11/30 18:33 UTC NOAA

TAF EPWR 301730Z 3018/0118 14008KT 6000 BKN006
TEMPO 3018/0105 2000 BR BKN003
BECMG 0105/0108 BKN017 PROB40
TEMPO 0108/0115 4000 BR BKN008

Example: see airport list